Webster Mills, Pennsylvania
Current Conditions -  °F | °C
As of 7:53 PM on Tuesday 21 Oct 2014 (Local Time) from KHGR Reporting Station
Overcast Overcast  
Wind Chill: 11°   Ceiling: 7500
Heat Index: 11°   Visibility: 10mi
Dew Point:   Wind: 3mph
Humidity: 89%   Direction: 40°NE
Pressure: 29.9"   Gusts: NA
Location:  39.973°N, 77.9661°W
Report Text: KHGR 212353Z 04003KT 10SM BKN075 OVC085 11/09 A2990 RMK AO2 RAB04E42 SLP136 P0000 60011 T01110094 10178 20111 51017
Loading
Personal Weather Stations






























Interactive Weather Map
Tropical Storm Tracking
New forecast layout! Learn more

10-Day Weather Forecast

Advertisements
Track Severe Weather on mobile